sensor_id;sensor_type;location;lat;lon;timestamp;pressure;altitude;pressure_sealevel;temperature;humidity
73860;BME280;62197;51.632;13.700;2022-10-04T00:01:20;100915.84;;;11.79;96.46
73860;BME280;62197;51.632;13.700;2022-10-04T00:03:48;100913.56;;;11.76;96.58
73860;BME280;62197;51.632;13.700;2022-10-04T00:06:20;100918.25;;;11.75;96.70
73860;BME280;62197;51.632;13.700;2022-10-04T00:08:56;100915.25;;;11.77;96.40
73860;BME280;62197;51.632;13.700;2022-10-04T00:11:34;100917.78;;;11.78;96.62
73860;BME280;62197;51.632;13.700;2022-10-04T00:14:15;100912.47;;;11.77;96.72
73860;BME280;62197;51.632;13.700;2022-10-04T00:16:43;100910.56;;;11.77;96.58
73860;BME280;62197;51.632;13.700;2022-10-04T00:24:36;100913.81;;;11.86;95.85
73860;BME280;62197;51.632;13.700;2022-10-04T00:27:22;100915.75;;;11.86;96.05
73860;BME280;62197;51.632;13.700;2022-10-04T00:32:30;100918.50;;;11.86;96.15
73860;BME280;62197;51.632;13.700;2022-10-04T00:40:29;100919.97;;;11.88;95.59
73860;BME280;62197;51.632;13.700;2022-10-04T00:43:03;100919.47;;;11.91;95.27
73860;BME280;62197;51.632;13.700;2022-10-04T00:45:44;100922.25;;;11.91;95.24
73860;BME280;62197;51.632;13.700;2022-10-04T00:48:28;100923.34;;;12.02;95.41
73860;BME280;62197;51.632;13.700;2022-10-04T00:56:40;100913.94;;;12.03;94.71
73860;BME280;62197;51.632;13.700;2022-10-04T00:59:16;100908.66;;;12.01;94.37
73860;BME280;62197;51.632;13.700;2022-10-04T01:01:46;100913.47;;;12.06;94.53
73860;BME280;62197;51.632;13.700;2022-10-04T01:04:27;100900.13;;;11.91;94.96
73860;BME280;62197;51.632;13.700;2022-10-04T01:06:59;100897.84;;;11.88;94.93
73860;BME280;62197;51.632;13.700;2022-10-04T01:09:28;100892.41;;;11.93;94.46
73860;BME280;62197;51.632;13.700;2022-10-04T01:12:24;100894.13;;;11.94;94.47
73860;BME280;62197;51.632;13.700;2022-10-04T01:17:38;100896.28;;;11.92;94.42
73860;BME280;62197;51.632;13.700;2022-10-04T01:20:24;100889.53;;;11.88;94.69
73860;BME280;62197;51.632;13.700;2022-10-04T01:22:52;100889.06;;;11.91;94.58
73860;BME280;62197;51.632;13.700;2022-10-04T01:25:45;100895.06;;;11.88;94.68
73860;BME280;62197;51.632;13.700;2022-10-04T01:28:11;100898.53;;;11.84;94.95
73860;BME280;62197;51.632;13.700;2022-10-04T01:30:36;100902.03;;;11.79;95.33
73860;BME280;62197;51.632;13.700;2022-10-04T01:33:02;100895.88;;;11.77;95.17
73860;BME280;62197;51.632;13.700;2022-10-04T01:35:27;100899.66;;;11.83;94.82
73860;BME280;62197;51.632;13.700;2022-10-04T01:37:53;100891.69;;;11.86;94.54
73860;BME280;62197;51.632;13.700;2022-10-04T01:40:20;100893.38;;;11.87;94.28
73860;BME280;62197;51.632;13.700;2022-10-04T01:42:55;100900.34;;;11.78;94.80
73860;BME280;62197;51.632;13.700;2022-10-04T01:45:34;100889.66;;;11.82;94.75
73860;BME280;62197;51.632;13.700;2022-10-04T01:48:07;100896.38;;;11.86;94.65
73860;BME280;62197;51.632;13.700;2022-10-04T01:50:42;100896.13;;;11.87;94.28
73860;BME280;62197;51.632;13.700;2022-10-04T01:53:31;100895.06;;;11.88;94.23
73860;BME280;62197;51.632;13.700;2022-10-04T01:56:09;100887.38;;;11.90;94.13
73860;BME280;62197;51.632;13.700;2022-10-04T01:58:42;100888.69;;;11.88;94.29
73860;BME280;62197;51.632;13.700;2022-10-04T02:01:14;100900.13;;;11.91;93.63
73860;BME280;62197;51.632;13.700;2022-10-04T02:03:46;100896.38;;;11.86;93.99
73860;BME280;62197;51.632;13.700;2022-10-04T02:06:16;100894.31;;;11.81;94.29
73860;BME280;62197;51.632;13.700;2022-10-04T02:08:49;100889.75;;;11.75;94.64
73860;BME280;62197;51.632;13.700;2022-10-04T02:11:17;100898.03;;;11.75;94.81
73860;BME280;62197;51.632;13.700;2022-10-04T02:13:44;100893.00;;;11.72;94.98
73860;BME280;62197;51.632;13.700;2022-10-04T02:16:11;100880.75;;;11.68;95.00
73860;BME280;62197;51.632;13.700;2022-10-04T02:18:38;100880.00;;;11.61;95.23
73860;BME280;62197;51.632;13.700;2022-10-04T02:21:05;100879.75;;;11.62;95.20
73860;BME280;62197;51.632;13.700;2022-10-04T02:23:33;100872.50;;;11.61;95.47
73860;BME280;62197;51.632;13.700;2022-10-04T02:26:04;100884.91;;;11.59;95.26
73860;BME280;62197;51.632;13.700;2022-10-04T02:28:31;100882.16;;;11.59;95.19
73860;BME280;62197;51.632;13.700;2022-10-04T02:30:58;100876.47;;;11.54;95.27
73860;BME280;62197;51.632;13.700;2022-10-04T02:33:45;100869.88;;;11.55;95.45
73860;BME280;62197;51.632;13.700;2022-10-04T02:36:11;100875.41;;;11.55;95.64
73860;BME280;62197;51.632;13.700;2022-10-04T02:38:54;100867.56;;;11.52;95.28
73860;BME280;62197;51.632;13.700;2022-10-04T02:43:54;100872.38;;;11.45;95.49
73860;BME280;62197;51.632;13.700;2022-10-04T02:46:27;100872.63;;;11.43;95.56
73860;BME280;62197;51.632;13.700;2022-10-04T02:49:27;100875.63;;;11.42;95.92
73860;BME280;62197;51.632;13.700;2022-10-04T02:52:04;100869.94;;;11.37;96.20
73860;BME280;62197;51.632;13.700;2022-10-04T02:54:41;100875.03;;;11.40;96.08
73860;BME280;62197;51.632;13.700;2022-10-04T02:57:14;100869.94;;;11.37;96.16
73860;BME280;62197;51.632;13.700;2022-10-04T02:59:40;100879.19;;;11.31;96.52
73860;BME280;62197;51.632;13.700;2022-10-04T03:02:24;100884.09;;;11.29;96.50
73860;BME280;62197;51.632;13.700;2022-10-04T03:04:51;100879.91;;;11.26;96.67
73860;BME280;62197;51.632;13.700;2022-10-04T03:07:18;100867.19;;;11.37;96.20
73860;BME280;62197;51.632;13.700;2022-10-04T03:09:45;100870.19;;;11.35;96.10
73860;BME280;62197;51.632;13.700;2022-10-04T03:12:11;100872.09;;;11.35;96.00
73860;BME280;62197;51.632;13.700;2022-10-04T03:14:37;100876.91;;;11.28;96.25
73860;BME280;62197;51.632;13.700;2022-10-04T03:17:03;100879.06;;;11.26;96.35
73860;BME280;62197;51.632;13.700;2022-10-04T03:19:30;100883.28;;;11.28;96.19
73860;BME280;62197;51.632;13.700;2022-10-04T03:21:59;100865.50;;;11.24;96.15
73860;BME280;62197;51.632;13.700;2022-10-04T03:24:36;100879.06;;;11.26;96.72
73860;BME280;62197;51.632;13.700;2022-10-04T03:27:05;100880.13;;;11.25;96.12
73860;BME280;62197;51.632;13.700;2022-10-04T03:29:33;100889.38;;;11.19;96.49
73860;BME280;62197;51.632;13.700;2022-10-04T03:32:01;100880.50;;;11.17;96.52
73860;BME280;62197;51.632;13.700;2022-10-04T03:34:34;100876.63;;;11.18;96.40
73860;BME280;62197;51.632;13.700;2022-10-04T03:37:01;100879.53;;;11.23;96.50
73860;BME280;62197;51.632;13.700;2022-10-04T03:39:37;100867.28;;;11.19;96.86
73860;BME280;62197;51.632;13.700;2022-10-04T03:42:11;100865.59;;;11.18;96.74
73860;BME280;62197;51.632;13.700;2022-10-04T03:44:38;100874.56;;;11.13;97.25
73860;BME280;62197;51.632;13.700;2022-10-04T03:47:13;100878.34;;;11.19;96.30
73860;BME280;62197;51.632;13.700;2022-10-04T03:49:39;100887.69;;;11.18;96.66
73860;BME280;62197;51.632;13.700;2022-10-04T03:52:06;100886.38;;;11.20;96.83
73860;BME280;62197;51.632;13.700;2022-10-04T03:54:37;100878.06;;;11.09;96.70
73860;BME280;62197;51.632;13.700;2022-10-04T03:57:03;100884.88;;;11.06;97.42
73860;BME280;62197;51.632;13.700;2022-10-04T03:59:30;100884.81;;;11.13;96.97
73860;BME280;62197;51.632;13.700;2022-10-04T04:02:07;100887.06;;;11.16;97.19
73860;BME280;62197;51.632;13.700;2022-10-04T04:04:52;100887.31;;;11.14;97.41
73860;BME280;62197;51.632;13.700;2022-10-04T04:07:24;100894.31;;;11.17;96.94
73860;BME280;62197;51.632;13.700;2022-10-04T04:10:12;100896.19;;;11.05;97.40
73860;BME280;62197;51.632;13.700;2022-10-04T04:12:56;100887.88;;;11.05;97.29
73860;BME280;62197;51.632;13.700;2022-10-04T04:15:27;100899.88;;;10.99;97.59
73860;BME280;62197;51.632;13.700;2022-10-04T04:17:54;100896.38;;;10.92;98.12
73860;BME280;62197;51.632;13.700;2022-10-04T04:20:24;100896.00;;;11.00;98.25
73860;BME280;62197;51.632;13.700;2022-10-04T04:23:22;100900.47;;;11.01;97.54
73860;BME280;62197;51.632;13.700;2022-10-04T04:25:53;100897.72;;;11.01;97.86
73860;BME280;62197;51.632;13.700;2022-10-04T04:28:26;100894.94;;;11.01;97.81
73860;BME280;62197;51.632;13.700;2022-10-04T04:31:01;100892.66;;;10.98;97.87
73860;BME280;62197;51.632;13.700;2022-10-04T04:33:40;100890.44;;;10.88;97.88
73860;BME280;62197;51.632;13.700;2022-10-04T04:36:11;100902.50;;;10.94;97.78
73860;BME280;62197;51.632;13.700;2022-10-04T04:38:36;100893.94;;;10.83;98.16
73860;BME280;62197;51.632;13.700;2022-10-04T04:41:23;100892.31;;;10.76;99.14
73860;BME280;62197;51.632;13.700;2022-10-04T04:43:49;100901.91;;;10.73;99.28
73860;BME280;62197;51.632;13.700;2022-10-04T04:46:14;100906.81;;;10.71;99.33
73860;BME280;62197;51.632;13.700;2022-10-04T04:48:42;100904.06;;;10.71;99.50
73860;BME280;62197;51.632;13.700;2022-10-04T04:51:16;100895.91;;;10.76;99.05
73860;BME280;62197;51.632;13.700;2022-10-04T04:53:44;100903.56;;;10.74;99.08
73860;BME280;62197;51.632;13.700;2022-10-04T04:56:11;100891.31;;;10.70;99.09
73860;BME280;62197;51.632;13.700;2022-10-04T04:58:44;100902.09;;;10.60;99.32
73860;BME280;62197;51.632;13.700;2022-10-04T05:01:22;100899.38;;;10.54;99.93
73860;BME280;62197;51.632;13.700;2022-10-04T05:06:35;100899.78;;;10.39;100.00
73860;BME280;62197;51.632;13.700;2022-10-04T05:09:02;100904.09;;;10.35;100.00
73860;BME280;62197;51.632;13.700;2022-10-04T05:11:30;100910.41;;;10.36;100.00
73860;BME280;62197;51.632;13.700;2022-10-04T05:14:08;100909.19;;;10.32;100.00
73860;BME280;62197;51.632;13.700;2022-10-04T05:16:36;100911.44;;;10.23;100.00
73860;BME280;62197;51.632;13.700;2022-10-04T05:19:07;100917.84;;;10.17;100.00
73860;BME280;62197;51.632;13.700;2022-10-04T05:21:33;100915.09;;;10.17;100.00
73860;BME280;62197;51.632;13.700;2022-10-04T05:24:18;100918.75;;;10.11;100.00
73860;BME280;62197;51.632;13.700;2022-10-04T05:26:49;100917.97;;;10.04;100.00
73860;BME280;62197;51.632;13.700;2022-10-04T05:29:20;100921.84;;;9.96;100.00
73860;BME280;62197;51.632;13.700;2022-10-04T05:34:39;100923.19;;;9.87;100.00
73860;BME280;62197;51.632;13.700;2022-10-04T05:37:17;100928.78;;;9.81;100.00
73860;BME280;62197;51.632;13.700;2022-10-04T05:40:07;100928.41;;;9.77;100.00
73860;BME280;62197;51.632;13.700;2022-10-04T05:42:44;100930.56;;;9.69;100.00
73860;BME280;62197;51.632;13.700;2022-10-04T05:45:33;100928.44;;;9.71;100.00
73860;BME280;62197;51.632;13.700;2022-10-04T05:47:59;100935.81;;;9.77;100.00
73860;BME280;62197;51.632;13.700;2022-10-04T05:50:37;100928.81;;;9.74;100.00
73860;BME280;62197;51.632;13.700;2022-10-04T05:56:04;100939.72;;;9.87;100.00
73860;BME280;62197;51.632;13.700;2022-10-04T05:59:14;100945.78;;;10.02;100.00
73860;BME280;62197;51.632;13.700;2022-10-04T06:04:38;100945.13;;;10.43;100.00
73860;BME280;62197;51.632;13.700;2022-10-04T06:07:30;100940.41;;;10.50;100.00
73860;BME280;62197;51.632;13.700;2022-10-04T06:10:17;100927.97;;;10.59;98.66
73860;BME280;62197;51.632;13.700;2022-10-04T06:12:56;100943.75;;;10.70;98.39
73860;BME280;62197;51.632;13.700;2022-10-04T06:18:32;100951.59;;;10.92;97.15
73860;BME280;62197;51.632;13.700;2022-10-04T06:21:15;100940.31;;;11.23;95.59
73860;BME280;62197;51.632;13.700;2022-10-04T06:23:51;100942.34;;;11.57;93.90
73860;BME280;62197;51.632;13.700;2022-10-04T06:26:22;100954.84;;;11.59;93.31
73860;BME280;62197;51.632;13.700;2022-10-04T06:28:56;100948.66;;;11.46;93.08
73860;BME280;62197;51.632;13.700;2022-10-04T06:31:38;100962.13;;;11.42;94.02
73860;BME280;62197;51.632;13.700;2022-10-04T06:45:44;100970.66;;;11.41;94.21
73860;BME280;62197;51.632;13.700;2022-10-04T06:48:31;100967.19;;;11.45;93.40
73860;BME280;62197;51.632;13.700;2022-10-04T06:51:28;100969.72;;;11.47;93.38
73860;BME280;62197;51.632;13.700;2022-10-04T06:56:45;100969.13;;;11.86;91.57
73860;BME280;62197;51.632;13.700;2022-10-04T06:59:52;100971.28;;;11.84;90.97
73860;BME280;62197;51.632;13.700;2022-10-04T07:02:26;100974.44;;;12.11;90.59
73860;BME280;62197;51.632;13.700;2022-10-04T07:07:41;100978.44;;;12.38;88.81
73860;BME280;62197;51.632;13.700;2022-10-04T07:10:32;100978.78;;;12.64;87.17
73860;BME280;62197;51.632;13.700;2022-10-04T07:18:28;100982.06;;;13.13;86.48
73860;BME280;62197;51.632;13.700;2022-10-04T07:21:08;100978.03;;;12.81;84.32
73860;BME280;62197;51.632;13.700;2022-10-04T07:23:53;100984.19;;;12.71;85.24
73860;BME280;62197;51.632;13.700;2022-10-04T07:26:44;100982.38;;;12.65;86.73
73860;BME280;62197;51.632;13.700;2022-10-04T07:29:40;100985.03;;;12.72;85.14
73860;BME280;62197;51.632;13.700;2022-10-04T07:32:19;100988.75;;;12.89;87.17
73860;BME280;62197;51.632;13.700;2022-10-04T07:34:50;100992.81;;;12.86;84.70
73860;BME280;62197;51.632;13.700;2022-10-04T07:37:18;100992.69;;;13.16;85.77
73860;BME280;62197;51.632;13.700;2022-10-04T07:39:53;100992.09;;;13.02;84.63
73860;BME280;62197;51.632;13.700;2022-10-04T07:42:38;100987.63;;;12.90;84.22
73860;BME280;62197;51.632;13.700;2022-10-04T07:45:29;100993.19;;;12.90;84.59
73860;BME280;62197;51.632;13.700;2022-10-04T07:48:09;101006.56;;;13.04;84.06
73860;BME280;62197;51.632;13.700;2022-10-04T07:50:43;101012.69;;;13.18;83.53
73860;BME280;62197;51.632;13.700;2022-10-04T07:53:32;101010.00;;;13.23;83.49
73860;BME280;62197;51.632;13.700;2022-10-04T07:56:05;101013.06;;;13.38;82.34
73860;BME280;62197;51.632;13.700;2022-10-04T07:58:40;101012.50;;;13.24;82.00
73860;BME280;62197;51.632;13.700;2022-10-04T08:04:13;100999.22;;;13.66;79.44
73860;BME280;62197;51.632;13.700;2022-10-04T08:09:50;101013.28;;;13.48;80.86
73860;BME280;62197;51.632;13.700;2022-10-04T08:12:41;101008.34;;;13.67;80.79
73860;BME280;62197;51.632;13.700;2022-10-04T08:18:17;101026.53;;;13.46;80.78
73860;BME280;62197;51.632;13.700;2022-10-04T08:20:56;101028.34;;;13.52;79.46
73860;BME280;62197;51.632;13.700;2022-10-04T08:26:39;101024.47;;;13.53;80.08
73860;BME280;62197;51.632;13.700;2022-10-04T08:29:23;101018.69;;;13.54;79.85
73860;BME280;62197;51.632;13.700;2022-10-04T08:35:33;101032.63;;;13.59;80.61
73860;BME280;62197;51.632;13.700;2022-10-04T08:44:22;101045.00;;;13.40;80.00
73860;BME280;62197;51.632;13.700;2022-10-04T08:47:26;101030.16;;;13.07;80.92
73860;BME280;62197;51.632;13.700;2022-10-04T08:50:25;101032.91;;;13.07;81.65
73860;BME280;62197;51.632;13.700;2022-10-04T08:56:37;101039.09;;;13.48;81.47
73860;BME280;62197;51.632;13.700;2022-10-04T08:59:22;101039.09;;;13.48;80.50
73860;BME280;62197;51.632;13.700;2022-10-04T09:07:26;101056.19;;;13.45;80.58
73860;BME280;62197;51.632;13.700;2022-10-04T09:10:20;101049.94;;;13.50;79.87
73860;BME280;62197;51.632;13.700;2022-10-04T09:15:53;101051.47;;;13.57;79.94
73860;BME280;62197;51.632;13.700;2022-10-04T09:18:29;101050.88;;;13.84;79.04
73860;BME280;62197;51.632;13.700;2022-10-04T09:21:09;101034.63;;;13.76;78.32
73860;BME280;62197;51.632;13.700;2022-10-04T09:24:05;101046.50;;;13.88;79.18
73860;BME280;62197;51.632;13.700;2022-10-04T09:26:42;101036.28;;;14.05;77.65
73860;BME280;62197;51.632;13.700;2022-10-04T09:34:49;101038.47;;;14.19;77.77
73860;BME280;62197;51.632;13.700;2022-10-04T09:37:29;101046.75;;;14.48;77.10
73860;BME280;62197;51.632;13.700;2022-10-04T09:40:37;101050.94;;;14.67;74.80
73860;BME280;62197;51.632;13.700;2022-10-04T09:49:09;101041.94;;;15.58;71.68
73860;BME280;62197;51.632;13.700;2022-10-04T09:55:05;101045.28;;;15.38;71.48
73860;BME280;62197;51.632;13.700;2022-10-04T09:57:57;101046.22;;;15.44;71.27
73860;BME280;62197;51.632;13.700;2022-10-04T10:03:55;101030.47;;;15.11;73.13
73860;BME280;62197;51.632;13.700;2022-10-04T10:06:44;101033.72;;;15.24;72.27
73860;BME280;62197;51.632;13.700;2022-10-04T10:09:23;101034.41;;;15.58;72.14
73860;BME280;62197;51.632;13.700;2022-10-04T10:12:24;101034.47;;;16.16;69.98
73860;BME280;62197;51.632;13.700;2022-10-04T10:15:26;101033.72;;;16.26;68.70
73860;BME280;62197;51.632;13.700;2022-10-04T10:20:36;101038.94;;;15.64;70.83
73860;BME280;62197;51.632;13.700;2022-10-04T10:37:49;101016.34;;;15.39;70.59
73860;BME280;62197;51.632;13.700;2022-10-04T10:49:33;101017.50;;;15.60;70.82
73860;BME280;62197;51.632;13.700;2022-10-04T10:55:04;101014.94;;;16.11;68.63
73860;BME280;62197;51.632;13.700;2022-10-04T10:58:13;101011.03;;;16.44;66.38
73860;BME280;62197;51.632;13.700;2022-10-04T11:23:56;101034.63;;;15.73;70.11
73860;BME280;62197;51.632;13.700;2022-10-04T11:27:08;101026.69;;;16.82;68.29
73860;BME280;62197;51.632;13.700;2022-10-04T11:29:53;101031.75;;;17.47;63.16
73860;BME280;62197;51.632;13.700;2022-10-04T11:33:04;101027.47;;;18.26;59.74
73860;BME280;62197;51.632;13.700;2022-10-04T11:35:51;101014.56;;;17.85;60.92
73860;BME280;62197;51.632;13.700;2022-10-04T11:47:13;101008.66;;;19.07;57.65
73860;BME280;62197;51.632;13.700;2022-10-04T12:00:57;100992.06;;;21.38;50.21
73860;BME280;62197;51.632;13.700;2022-10-04T12:09:32;100981.91;;;18.76;56.84
73860;BME280;62197;51.632;13.700;2022-10-04T12:12:21;100974.13;;;19.91;53.64
73860;BME280;62197;51.632;13.700;2022-10-04T12:15:26;100972.16;;;19.91;52.43
73860;BME280;62197;51.632;13.700;2022-10-04T12:32:10;100967.38;;;19.53;54.38
73860;BME280;62197;51.632;13.700;2022-10-04T12:34:53;100963.75;;;20.30;52.09
73860;BME280;62197;51.632;13.700;2022-10-04T12:42:46;100976.34;;;18.36;57.75
73860;BME280;62197;51.632;13.700;2022-10-04T12:45:25;100971.88;;;18.35;57.30
73860;BME280;62197;51.632;13.700;2022-10-04T12:50:30;100958.09;;;19.96;53.87
73860;BME280;62197;51.632;13.700;2022-10-04T12:53:24;100976.16;;;19.21;53.96
73860;BME280;62197;51.632;13.700;2022-10-04T12:59:01;100969.16;;;19.19;57.10
73860;BME280;62197;51.632;13.700;2022-10-04T13:01:39;100966.88;;;19.85;54.46
73860;BME280;62197;51.632;13.700;2022-10-04T13:04:26;100960.59;;;18.95;55.97
73860;BME280;62197;51.632;13.700;2022-10-04T13:07:17;100967.97;;;18.21;58.80
73860;BME280;62197;51.632;13.700;2022-10-04T13:09:49;100967.94;;;17.90;59.59
73860;BME280;62197;51.632;13.700;2022-10-04T13:15:26;100972.03;;;20.45;52.26
73860;BME280;62197;51.632;13.700;2022-10-04T13:20:55;100975.78;;;17.78;57.94
73860;BME280;62197;51.632;13.700;2022-10-04T13:23:30;100973.28;;;18.57;56.89
73860;BME280;62197;51.632;13.700;2022-10-04T13:31:25;100971.59;;;18.71;55.84
73860;BME280;62197;51.632;13.700;2022-10-04T13:34:09;100963.75;;;17.93;58.99
73860;BME280;62197;51.632;13.700;2022-10-04T13:37:05;100974.03;;;17.52;60.30
73860;BME280;62197;51.632;13.700;2022-10-04T13:40:00;100969.38;;;21.34;50.93
73860;BME280;62197;51.632;13.700;2022-10-04T13:45:40;100960.69;;;23.15;45.44
73860;BME280;62197;51.632;13.700;2022-10-04T14:02:26;100950.47;;;20.69;49.55
73860;BME280;62197;51.632;13.700;2022-10-04T14:05:02;100961.50;;;19.49;53.48
73860;BME280;62197;51.632;13.700;2022-10-04T14:16:20;100942.19;;;23.99;42.71
73860;BME280;62197;51.632;13.700;2022-10-04T14:27:27;100934.50;;;24.27;42.48
73860;BME280;62197;51.632;13.700;2022-10-04T14:33:11;100921.81;;;23.31;43.92
73860;BME280;62197;51.632;13.700;2022-10-04T14:35:46;100922.09;;;23.57;44.83
73860;BME280;62197;51.632;13.700;2022-10-04T14:38:21;100910.66;;;24.11;42.86
73860;BME280;62197;51.632;13.700;2022-10-04T14:47:04;100895.66;;;24.02;42.19
73860;BME280;62197;51.632;13.700;2022-10-04T14:50:06;100899.53;;;24.14;42.16
73860;BME280;62197;51.632;13.700;2022-10-04T14:58:24;100886.38;;;24.54;41.00
73860;BME280;62197;51.632;13.700;2022-10-04T15:01:05;100880.84;;;23.83;42.61
73860;BME280;62197;51.632;13.700;2022-10-04T15:06:37;100868.31;;;23.31;43.78
73860;BME280;62197;51.632;13.700;2022-10-04T15:09:39;100868.31;;;23.67;42.44
73860;BME280;62197;51.632;13.700;2022-10-04T15:12:39;100863.50;;;22.50;44.74
73860;BME280;62197;51.632;13.700;2022-10-04T15:25:45;100848.09;;;21.32;47.89
73860;BME280;62197;51.632;13.700;2022-10-04T15:31:00;100852.44;;;19.29;53.70
73860;BME280;62197;51.632;13.700;2022-10-04T15:33:44;100845.03;;;18.26;57.84
73860;BME280;62197;51.632;13.700;2022-10-04T15:42:24;100866.47;;;16.48;63.36
73860;BME280;62197;51.632;13.700;2022-10-04T15:59:25;100870.16;;;14.95;69.32
73860;BME280;62197;51.632;13.700;2022-10-04T16:10:28;100872.09;;;14.29;72.83
73860;BME280;62197;51.632;13.700;2022-10-04T16:16:15;100857.84;;;13.88;74.03
73860;BME280;62197;51.632;13.700;2022-10-04T16:18:44;100871.22;;;13.74;76.24
73860;BME280;62197;51.632;13.700;2022-10-04T16:35:44;100876.91;;;12.66;82.68
73860;BME280;62197;51.632;13.700;2022-10-04T16:46:11;100874.13;;;12.27;86.49
73860;BME280;62197;51.632;13.700;2022-10-04T16:48:49;100875.56;;;12.06;86.71
73860;BME280;62197;51.632;13.700;2022-10-04T17:04:54;100871.63;;;11.26;90.29
73860;BME280;62197;51.632;13.700;2022-10-04T17:07:31;100870.38;;;11.11;91.02
73860;BME280;62197;51.632;13.700;2022-10-04T17:10:16;100865.56;;;11.06;92.12
73860;BME280;62197;51.632;13.700;2022-10-04T17:21:39;100866.66;;;10.57;94.32
73860;BME280;62197;51.632;13.700;2022-10-04T17:27:24;100889.56;;;10.40;95.33
73860;BME280;62197;51.632;13.700;2022-10-04T17:35:57;100897.47;;;10.18;96.32
73860;BME280;62197;51.632;13.700;2022-10-04T17:38:46;100899.00;;;10.14;97.26
73860;BME280;62197;51.632;13.700;2022-10-04T17:42:12;100898.81;;;10.09;97.12
73860;BME280;62197;51.632;13.700;2022-10-04T17:44:30;100911.22;;;10.00;97.82
73860;BME280;62197;51.632;13.700;2022-10-04T17:47:10;100893.47;;;9.89;98.03
73860;BME280;62197;51.632;13.700;2022-10-04T17:50:10;100910.25;;;9.88;98.62
73860;BME280;62197;51.632;13.700;2022-10-04T17:53:02;100905.94;;;9.74;98.66
73860;BME280;62197;51.632;13.700;2022-10-04T17:55:54;100909.53;;;9.74;99.64
73860;BME280;62197;51.632;13.700;2022-10-04T17:58:25;100903.44;;;9.66;99.37
73860;BME280;62197;51.632;13.700;2022-10-04T18:01:02;100899.38;;;9.75;100.00
73860;BME280;62197;51.632;13.700;2022-10-04T18:03:39;100897.75;;;9.67;99.81
73860;BME280;62197;51.632;13.700;2022-10-04T18:09:31;100910.81;;;9.47;100.00
73860;BME280;62197;51.632;13.700;2022-10-04T18:12:00;100902.31;;;9.49;100.00
73860;BME280;62197;51.632;13.700;2022-10-04T18:17:04;100895.03;;;9.36;99.92
73860;BME280;62197;51.632;13.700;2022-10-04T18:19:40;100899.91;;;9.34;100.00
73860;BME280;62197;51.632;13.700;2022-10-04T18:22:23;100886.06;;;9.41;100.00
73860;BME280;62197;51.632;13.700;2022-10-04T18:25:16;100892.66;;;9.40;100.00
73860;BME280;62197;51.632;13.700;2022-10-04T18:28:22;100871.25;;;9.42;100.00
73860;BME280;62197;51.632;13.700;2022-10-04T18:33:22;100872.47;;;9.46;100.00
73860;BME280;62197;51.632;13.700;2022-10-04T18:36:17;100871.88;;;9.44;100.00
73860;BME280;62197;51.632;13.700;2022-10-04T18:38:45;100874.84;;;9.42;100.00
73860;BME280;62197;51.632;13.700;2022-10-04T18:41:19;100874.00;;;9.42;100.00
73860;BME280;62197;51.632;13.700;2022-10-04T18:46:22;100870.34;;;9.48;100.00
73860;BME280;62197;51.632;13.700;2022-10-04T18:48:59;100872.03;;;9.49;100.00
73860;BME280;62197;51.632;13.700;2022-10-04T18:51:37;100860.38;;;9.47;100.00
73860;BME280;62197;51.632;13.700;2022-10-04T18:57:19;100865.19;;;9.58;99.85
73860;BME280;62197;51.632;13.700;2022-10-04T19:03:01;100875.19;;;9.52;99.25
73860;BME280;62197;51.632;13.700;2022-10-04T19:05:53;100874.84;;;9.42;99.56
73860;BME280;62197;51.632;13.700;2022-10-04T19:08:41;100856.72;;;9.28;99.80
73860;BME280;62197;51.632;13.700;2022-10-04T19:11:23;100874.16;;;9.22;99.85
73860;BME280;62197;51.632;13.700;2022-10-04T19:16:59;100881.09;;;9.00;100.00
73860;BME280;62197;51.632;13.700;2022-10-04T19:25:14;100881.91;;;9.00;100.00
73860;BME280;62197;51.632;13.700;2022-10-04T19:27:51;100873.03;;;8.98;100.00
73860;BME280;62197;51.632;13.700;2022-10-04T19:30:25;100878.53;;;8.98;100.00
73860;BME280;62197;51.632;13.700;2022-10-04T19:33:16;100876.88;;;8.97;100.00
73860;BME280;62197;51.632;13.700;2022-10-04T19:36:42;100868.41;;;8.92;100.00
73860;BME280;62197;51.632;13.700;2022-10-04T19:39:06;100876.03;;;8.90;100.00
73860;BME280;62197;51.632;13.700;2022-10-04T19:41:40;100890.00;;;8.95;100.00
73860;BME280;62197;51.632;13.700;2022-10-04T19:44:38;100890.44;;;8.92;100.00
73860;BME280;62197;51.632;13.700;2022-10-04T19:47:33;100883.06;;;8.86;100.00
73860;BME280;62197;51.632;13.700;2022-10-04T19:50:31;100899.94;;;8.96;100.00
73860;BME280;62197;51.632;13.700;2022-10-04T19:53:05;100897.63;;;8.93;100.00
73860;BME280;62197;51.632;13.700;2022-10-04T19:55:53;100904.88;;;8.88;100.00
73860;BME280;62197;51.632;13.700;2022-10-04T19:58:40;100900.41;;;8.87;100.00
73860;BME280;62197;51.632;13.700;2022-10-04T20:01:10;100913.28;;;8.93;100.00
73860;BME280;62197;51.632;13.700;2022-10-04T20:03:36;100900.19;;;8.88;100.00
73860;BME280;62197;51.632;13.700;2022-10-04T20:06:02;100911.00;;;8.90;100.00
73860;BME280;62197;51.632;13.700;2022-10-04T20:11:55;100903.38;;;8.85;100.00
73860;BME280;62197;51.632;13.700;2022-10-04T20:21:44;100915.09;;;8.74;100.00
73860;BME280;62197;51.632;13.700;2022-10-04T20:24:16;100913.84;;;8.70;100.00
73860;BME280;62197;51.632;13.700;2022-10-04T20:26:43;100913.00;;;8.63;100.00
73860;BME280;62197;51.632;13.700;2022-10-04T20:32:09;100909.22;;;8.64;100.00
73860;BME280;62197;51.632;13.700;2022-10-04T20:37:04;100913.84;;;8.64;100.00